sensor_id;sensor_type;location;lat;lon;timestamp;temperature;humidity
36132;DHT22;22185;48.738;9.324;2022-08-01T00:00:22;19.80;99.90
36132;DHT22;22185;48.738;9.324;2022-08-01T00:02:26;19.80;99.90
36132;DHT22;22185;48.738;9.324;2022-08-01T00:04:28;19.80;99.90
36132;DHT22;22185;48.738;9.324;2022-08-01T00:06:30;19.80;99.90
36132;DHT22;22185;48.738;9.324;2022-08-01T00:08:32;19.70;99.90
36132;DHT22;22185;48.738;9.324;2022-08-01T00:10:34;19.70;99.90
36132;DHT22;22185;48.738;9.324;2022-08-01T00:12:41;19.70;99.90
36132;DHT22;22185;48.738;9.324;2022-08-01T00:14:43;19.70;99.90
36132;DHT22;22185;48.738;9.324;2022-08-01T00:16:45;19.60;99.90
36132;DHT22;22185;48.738;9.324;2022-08-01T00:18:47;19.60;99.90
36132;DHT22;22185;48.738;9.324;2022-08-01T00:20:49;19.60;99.90
36132;DHT22;22185;48.738;9.324;2022-08-01T00:22:50;19.60;99.90
36132;DHT22;22185;48.738;9.324;2022-08-01T00:24:52;19.60;99.90
36132;DHT22;22185;48.738;9.324;2022-08-01T00:26:56;19.60;99.90
36132;DHT22;22185;48.738;9.324;2022-08-01T00:28:58;19.50;99.90
36132;DHT22;22185;48.738;9.324;2022-08-01T00:31:00;19.60;99.90
36132;DHT22;22185;48.738;9.324;2022-08-01T00:33:02;19.50;99.90
36132;DHT22;22185;48.738;9.324;2022-08-01T00:35:04;19.50;99.90
36132;DHT22;22185;48.738;9.324;2022-08-01T00:37:05;19.40;99.90
36132;DHT22;22185;48.738;9.324;2022-08-01T00:39:07;19.50;99.90
36132;DHT22;22185;48.738;9.324;2022-08-01T00:41:09;19.50;99.90
36132;DHT22;22185;48.738;9.324;2022-08-01T00:43:11;19.50;99.90
36132;DHT22;22185;48.738;9.324;2022-08-01T00:45:13;19.30;99.90
36132;DHT22;22185;48.738;9.324;2022-08-01T00:47:15;19.30;99.90
36132;DHT22;22185;48.738;9.324;2022-08-01T00:49:16;19.40;99.90
36132;DHT22;22185;48.738;9.324;2022-08-01T00:51:18;19.30;99.90
36132;DHT22;22185;48.738;9.324;2022-08-01T00:53:20;19.30;99.90
36132;DHT22;22185;48.738;9.324;2022-08-01T00:55:22;19.30;99.90
36132;DHT22;22185;48.738;9.324;2022-08-01T00:57:25;19.30;99.90
36132;DHT22;22185;48.738;9.324;2022-08-01T00:59:46;19.30;99.90
36132;DHT22;22185;48.738;9.324;2022-08-01T01:01:49;19.30;99.90
36132;DHT22;22185;48.738;9.324;2022-08-01T01:03:52;19.20;99.90
36132;DHT22;22185;48.738;9.324;2022-08-01T01:06:03;19.30;99.90
36132;DHT22;22185;48.738;9.324;2022-08-01T01:08:16;19.30;99.90
36132;DHT22;22185;48.738;9.324;2022-08-01T01:13:00;19.20;99.90
36132;DHT22;22185;48.738;9.324;2022-08-01T01:15:41;19.20;99.90
36132;DHT22;22185;48.738;9.324;2022-08-01T01:20:05;19.10;99.90
36132;DHT22;22185;48.738;9.324;2022-08-01T01:27:10;19.00;99.90
36132;DHT22;22185;48.738;9.324;2022-08-01T01:29:41;19.00;99.90
36132;DHT22;22185;48.738;9.324;2022-08-01T01:32:06;18.90;99.90
36132;DHT22;22185;48.738;9.324;2022-08-01T01:34:11;18.90;99.90
36132;DHT22;22185;48.738;9.324;2022-08-01T01:36:14;19.00;99.90
36132;DHT22;22185;48.738;9.324;2022-08-01T01:38:24;18.90;99.90
36132;DHT22;22185;48.738;9.324;2022-08-01T01:40:27;18.90;99.90
36132;DHT22;22185;48.738;9.324;2022-08-01T01:42:32;18.90;99.90
36132;DHT22;22185;48.738;9.324;2022-08-01T01:44:36;18.90;99.90
36132;DHT22;22185;48.738;9.324;2022-08-01T01:46:39;18.80;99.90
36132;DHT22;22185;48.738;9.324;2022-08-01T01:48:43;18.80;99.90
36132;DHT22;22185;48.738;9.324;2022-08-01T01:50:49;18.70;99.90
36132;DHT22;22185;48.738;9.324;2022-08-01T01:52:53;18.80;99.90
36132;DHT22;22185;48.738;9.324;2022-08-01T01:54:57;18.80;99.90
36132;DHT22;22185;48.738;9.324;2022-08-01T01:57:02;18.70;99.90
36132;DHT22;22185;48.738;9.324;2022-08-01T01:59:05;18.70;99.90
36132;DHT22;22185;48.738;9.324;2022-08-01T02:01:07;18.80;99.90
36132;DHT22;22185;48.738;9.324;2022-08-01T02:03:16;18.80;99.90
36132;DHT22;22185;48.738;9.324;2022-08-01T02:05:18;18.80;99.90
36132;DHT22;22185;48.738;9.324;2022-08-01T02:07:22;18.70;99.90
36132;DHT22;22185;48.738;9.324;2022-08-01T02:09:26;18.70;99.90
36132;DHT22;22185;48.738;9.324;2022-08-01T02:11:30;18.70;99.90
36132;DHT22;22185;48.738;9.324;2022-08-01T02:13:34;18.70;99.90
36132;DHT22;22185;48.738;9.324;2022-08-01T02:15:38;18.70;99.90
36132;DHT22;22185;48.738;9.324;2022-08-01T02:18:00;18.70;99.90
36132;DHT22;22185;48.738;9.324;2022-08-01T02:20:03;18.70;99.90
36132;DHT22;22185;48.738;9.324;2022-08-01T02:22:10;18.70;99.90
36132;DHT22;22185;48.738;9.324;2022-08-01T02:24:29;18.70;99.90
36132;DHT22;22185;48.738;9.324;2022-08-01T02:26:33;18.60;99.90
36132;DHT22;22185;48.738;9.324;2022-08-01T02:28:49;18.60;99.90
36132;DHT22;22185;48.738;9.324;2022-08-01T02:30:52;18.60;99.90
36132;DHT22;22185;48.738;9.324;2022-08-01T02:33:00;18.60;99.90
36132;DHT22;22185;48.738;9.324;2022-08-01T02:35:05;18.50;99.90
36132;DHT22;22185;48.738;9.324;2022-08-01T02:37:09;18.50;99.90
36132;DHT22;22185;48.738;9.324;2022-08-01T02:39:15;18.50;99.90
36132;DHT22;22185;48.738;9.324;2022-08-01T02:41:22;18.40;99.90
36132;DHT22;22185;48.738;9.324;2022-08-01T02:43:28;18.50;99.90
36132;DHT22;22185;48.738;9.324;2022-08-01T02:45:32;18.40;99.90
36132;DHT22;22185;48.738;9.324;2022-08-01T02:47:37;18.40;99.90
36132;DHT22;22185;48.738;9.324;2022-08-01T02:49:45;18.30;99.90
36132;DHT22;22185;48.738;9.324;2022-08-01T02:51:54;18.30;99.90
36132;DHT22;22185;48.738;9.324;2022-08-01T02:53:57;18.30;99.90
36132;DHT22;22185;48.738;9.324;2022-08-01T02:56:01;18.30;99.90
36132;DHT22;22185;48.738;9.324;2022-08-01T02:58:04;18.30;99.90
36132;DHT22;22185;48.738;9.324;2022-08-01T03:00:07;18.20;99.90
36132;DHT22;22185;48.738;9.324;2022-08-01T03:02:09;18.20;99.90
36132;DHT22;22185;48.738;9.324;2022-08-01T03:04:14;18.00;99.90
36132;DHT22;22185;48.738;9.324;2022-08-01T03:06:19;18.10;99.90
36132;DHT22;22185;48.738;9.324;2022-08-01T03:08:22;18.00;99.90
36132;DHT22;22185;48.738;9.324;2022-08-01T03:10:28;18.10;99.90
36132;DHT22;22185;48.738;9.324;2022-08-01T03:12:33;18.10;99.90
36132;DHT22;22185;48.738;9.324;2022-08-01T03:14:38;18.10;99.90
36132;DHT22;22185;48.738;9.324;2022-08-01T03:16:42;18.10;99.90
36132;DHT22;22185;48.738;9.324;2022-08-01T03:18:46;18.10;99.90
36132;DHT22;22185;48.738;9.324;2022-08-01T03:20:49;18.10;99.90
36132;DHT22;22185;48.738;9.324;2022-08-01T03:22:52;18.10;99.90
36132;DHT22;22185;48.738;9.324;2022-08-01T03:25:01;18.10;99.90
36132;DHT22;22185;48.738;9.324;2022-08-01T03:27:04;18.00;99.90
36132;DHT22;22185;48.738;9.324;2022-08-01T03:29:12;17.90;99.90
36132;DHT22;22185;48.738;9.324;2022-08-01T03:31:16;18.00;99.90
36132;DHT22;22185;48.738;9.324;2022-08-01T03:33:18;17.90;99.90
36132;DHT22;22185;48.738;9.324;2022-08-01T03:35:22;17.90;99.90
36132;DHT22;22185;48.738;9.324;2022-08-01T03:37:30;17.90;99.90
36132;DHT22;22185;48.738;9.324;2022-08-01T03:39:42;17.90;99.90
36132;DHT22;22185;48.738;9.324;2022-08-01T03:41:50;17.80;99.90
36132;DHT22;22185;48.738;9.324;2022-08-01T03:44:02;17.90;99.90
36132;DHT22;22185;48.738;9.324;2022-08-01T03:46:07;17.80;99.90
36132;DHT22;22185;48.738;9.324;2022-08-01T03:48:14;17.80;99.90
36132;DHT22;22185;48.738;9.324;2022-08-01T03:50:21;17.80;99.90
36132;DHT22;22185;48.738;9.324;2022-08-01T03:52:25;17.70;99.90
36132;DHT22;22185;48.738;9.324;2022-08-01T03:54:33;17.60;99.90
36132;DHT22;22185;48.738;9.324;2022-08-01T03:56:36;17.60;99.90
36132;DHT22;22185;48.738;9.324;2022-08-01T03:58:39;17.50;99.90
36132;DHT22;22185;48.738;9.324;2022-08-01T04:00:43;17.50;99.90
36132;DHT22;22185;48.738;9.324;2022-08-01T04:02:47;17.60;99.90
36132;DHT22;22185;48.738;9.324;2022-08-01T04:04:49;17.60;99.90
36132;DHT22;22185;48.738;9.324;2022-08-01T04:06:51;17.50;99.90
36132;DHT22;22185;48.738;9.324;2022-08-01T04:08:55;17.60;99.90
36132;DHT22;22185;48.738;9.324;2022-08-01T04:10:57;17.60;99.90
36132;DHT22;22185;48.738;9.324;2022-08-01T04:13:00;17.60;99.90
36132;DHT22;22185;48.738;9.324;2022-08-01T04:15:02;17.70;99.90
36132;DHT22;22185;48.738;9.324;2022-08-01T04:17:04;17.60;99.90
36132;DHT22;22185;48.738;9.324;2022-08-01T04:19:06;17.70;99.90
36132;DHT22;22185;48.738;9.324;2022-08-01T04:21:13;17.60;99.90
36132;DHT22;22185;48.738;9.324;2022-08-01T04:23:16;17.60;99.90
36132;DHT22;22185;48.738;9.324;2022-08-01T04:25:33;17.70;99.90
36132;DHT22;22185;48.738;9.324;2022-08-01T04:27:38;17.60;99.90
36132;DHT22;22185;48.738;9.324;2022-08-01T04:29:53;17.60;99.90
36132;DHT22;22185;48.738;9.324;2022-08-01T04:31:59;17.70;99.90
36132;DHT22;22185;48.738;9.324;2022-08-01T04:34:04;17.80;99.90
36132;DHT22;22185;48.738;9.324;2022-08-01T04:36:08;17.80;99.90
36132;DHT22;22185;48.738;9.324;2022-08-01T04:38:13;17.80;99.90
36132;DHT22;22185;48.738;9.324;2022-08-01T04:40:19;17.80;99.90
36132;DHT22;22185;48.738;9.324;2022-08-01T04:42:23;17.80;99.90
36132;DHT22;22185;48.738;9.324;2022-08-01T04:44:33;17.90;99.90
36132;DHT22;22185;48.738;9.324;2022-08-01T04:46:35;17.90;99.90
36132;DHT22;22185;48.738;9.324;2022-08-01T04:48:38;17.90;99.90
36132;DHT22;22185;48.738;9.324;2022-08-01T04:50:41;17.80;99.90
36132;DHT22;22185;48.738;9.324;2022-08-01T04:52:43;17.80;99.90
36132;DHT22;22185;48.738;9.324;2022-08-01T04:54:47;17.70;99.90
36132;DHT22;22185;48.738;9.324;2022-08-01T04:56:49;17.70;99.90
36132;DHT22;22185;48.738;9.324;2022-08-01T04:58:52;17.80;99.90
36132;DHT22;22185;48.738;9.324;2022-08-01T05:01:20;17.90;99.90
36132;DHT22;22185;48.738;9.324;2022-08-01T05:03:22;18.00;99.90
36132;DHT22;22185;48.738;9.324;2022-08-01T05:05:24;18.00;99.90
36132;DHT22;22185;48.738;9.324;2022-08-01T05:07:27;18.00;99.90
36132;DHT22;22185;48.738;9.324;2022-08-01T05:09:29;18.10;99.90
36132;DHT22;22185;48.738;9.324;2022-08-01T05:11:32;18.20;99.90
36132;DHT22;22185;48.738;9.324;2022-08-01T05:13:35;18.20;99.90
36132;DHT22;22185;48.738;9.324;2022-08-01T05:15:37;18.20;99.90
36132;DHT22;22185;48.738;9.324;2022-08-01T05:17:42;18.20;99.90
36132;DHT22;22185;48.738;9.324;2022-08-01T05:19:44;18.30;99.90
36132;DHT22;22185;48.738;9.324;2022-08-01T05:21:50;18.30;99.90
36132;DHT22;22185;48.738;9.324;2022-08-01T05:24:01;18.30;99.90
36132;DHT22;22185;48.738;9.324;2022-08-01T05:26:05;18.40;99.90
36132;DHT22;22185;48.738;9.324;2022-08-01T05:28:16;18.40;99.90
36132;DHT22;22185;48.738;9.324;2022-08-01T05:30:33;18.40;99.90
36132;DHT22;22185;48.738;9.324;2022-08-01T05:32:44;18.50;99.90
36132;DHT22;22185;48.738;9.324;2022-08-01T05:34:59;18.50;99.90
36132;DHT22;22185;48.738;9.324;2022-08-01T05:37:21;18.60;99.90
36132;DHT22;22185;48.738;9.324;2022-08-01T05:39:29;18.60;99.90
36132;DHT22;22185;48.738;9.324;2022-08-01T05:41:31;18.70;99.90
36132;DHT22;22185;48.738;9.324;2022-08-01T05:43:36;18.70;99.90
36132;DHT22;22185;48.738;9.324;2022-08-01T05:45:38;18.80;99.90
36132;DHT22;22185;48.738;9.324;2022-08-01T05:47:43;18.80;99.90
36132;DHT22;22185;48.738;9.324;2022-08-01T05:49:45;18.80;99.90
36132;DHT22;22185;48.738;9.324;2022-08-01T05:51:47;18.90;99.90
36132;DHT22;22185;48.738;9.324;2022-08-01T05:53:49;18.90;99.90
36132;DHT22;22185;48.738;9.324;2022-08-01T05:55:51;19.00;99.90
36132;DHT22;22185;48.738;9.324;2022-08-01T05:57:56;19.00;99.90
36132;DHT22;22185;48.738;9.324;2022-08-01T05:59:58;19.00;99.90
36132;DHT22;22185;48.738;9.324;2022-08-01T06:02:03;19.10;99.90
36132;DHT22;22185;48.738;9.324;2022-08-01T06:04:17;19.30;99.90
36132;DHT22;22185;48.738;9.324;2022-08-01T06:06:19;19.30;99.90
36132;DHT22;22185;48.738;9.324;2022-08-01T06:08:26;19.30;99.90
36132;DHT22;22185;48.738;9.324;2022-08-01T06:10:28;19.40;99.90
36132;DHT22;22185;48.738;9.324;2022-08-01T06:12:32;19.50;99.90
36132;DHT22;22185;48.738;9.324;2022-08-01T06:14:38;19.70;99.90
36132;DHT22;22185;48.738;9.324;2022-08-01T06:16:40;19.70;99.90
36132;DHT22;22185;48.738;9.324;2022-08-01T06:18:49;19.80;99.90
36132;DHT22;22185;48.738;9.324;2022-08-01T06:20:57;19.70;99.90
36132;DHT22;22185;48.738;9.324;2022-08-01T06:22:59;19.70;99.90
36132;DHT22;22185;48.738;9.324;2022-08-01T06:25:24;19.80;99.90
36132;DHT22;22185;48.738;9.324;2022-08-01T06:27:48;19.90;99.90
36132;DHT22;22185;48.738;9.324;2022-08-01T06:29:51;20.00;99.90
36132;DHT22;22185;48.738;9.324;2022-08-01T06:31:58;20.10;99.90
36132;DHT22;22185;48.738;9.324;2022-08-01T06:34:02;20.10;99.90
36132;DHT22;22185;48.738;9.324;2022-08-01T06:36:07;20.10;99.90
36132;DHT22;22185;48.738;9.324;2022-08-01T06:38:41;20.10;99.90
36132;DHT22;22185;48.738;9.324;2022-08-01T06:40:44;20.20;99.90
36132;DHT22;22185;48.738;9.324;2022-08-01T06:42:53;20.30;99.90
36132;DHT22;22185;48.738;9.324;2022-08-01T06:44:57;20.40;99.90
36132;DHT22;22185;48.738;9.324;2022-08-01T06:47:02;20.40;99.90
36132;DHT22;22185;48.738;9.324;2022-08-01T06:49:04;20.50;99.90
36132;DHT22;22185;48.738;9.324;2022-08-01T06:51:06;20.50;99.90
36132;DHT22;22185;48.738;9.324;2022-08-01T06:53:14;20.60;99.90
36132;DHT22;22185;48.738;9.324;2022-08-01T06:55:16;20.60;99.90
36132;DHT22;22185;48.738;9.324;2022-08-01T06:57:18;20.70;99.90
36132;DHT22;22185;48.738;9.324;2022-08-01T06:59:20;20.80;99.90
36132;DHT22;22185;48.738;9.324;2022-08-01T07:01:22;20.70;99.90
36132;DHT22;22185;48.738;9.324;2022-08-01T07:03:24;20.80;99.90
36132;DHT22;22185;48.738;9.324;2022-08-01T07:05:28;20.80;99.90
36132;DHT22;22185;48.738;9.324;2022-08-01T07:07:32;20.90;99.90
36132;DHT22;22185;48.738;9.324;2022-08-01T07:09:34;20.90;99.90
36132;DHT22;22185;48.738;9.324;2022-08-01T07:11:37;21.00;99.90
36132;DHT22;22185;48.738;9.324;2022-08-01T07:13:39;21.00;99.90
36132;DHT22;22185;48.738;9.324;2022-08-01T07:15:47;21.00;99.90
36132;DHT22;22185;48.738;9.324;2022-08-01T07:17:49;21.10;99.90
36132;DHT22;22185;48.738;9.324;2022-08-01T07:19:51;21.20;99.90
36132;DHT22;22185;48.738;9.324;2022-08-01T07:21:58;21.20;99.90
36132;DHT22;22185;48.738;9.324;2022-08-01T07:24:09;21.30;99.90
36132;DHT22;22185;48.738;9.324;2022-08-01T07:26:14;21.40;99.90
36132;DHT22;22185;48.738;9.324;2022-08-01T07:28:17;21.70;99.90
36132;DHT22;22185;48.738;9.324;2022-08-01T07:30:27;21.80;99.90
36132;DHT22;22185;48.738;9.324;2022-08-01T07:32:30;21.80;99.90
36132;DHT22;22185;48.738;9.324;2022-08-01T07:34:32;21.90;99.90
36132;DHT22;22185;48.738;9.324;2022-08-01T07:36:37;22.00;99.90
36132;DHT22;22185;48.738;9.324;2022-08-01T07:38:39;22.10;99.90
36132;DHT22;22185;48.738;9.324;2022-08-01T07:40:44;22.20;99.90
36132;DHT22;22185;48.738;9.324;2022-08-01T07:42:46;22.50;99.90
36132;DHT22;22185;48.738;9.324;2022-08-01T07:44:53;22.50;99.90
36132;DHT22;22185;48.738;9.324;2022-08-01T07:46:56;22.60;99.90
36132;DHT22;22185;48.738;9.324;2022-08-01T07:48:58;22.80;99.90
36132;DHT22;22185;48.738;9.324;2022-08-01T07:50:59;22.90;99.90
36132;DHT22;22185;48.738;9.324;2022-08-01T07:53:04;22.90;99.90
36132;DHT22;22185;48.738;9.324;2022-08-01T07:55:07;23.00;99.90
36132;DHT22;22185;48.738;9.324;2022-08-01T07:57:08;23.20;99.90
36132;DHT22;22185;48.738;9.324;2022-08-01T07:59:10;23.30;99.90
36132;DHT22;22185;48.738;9.324;2022-08-01T08:01:24;23.40;99.90
36132;DHT22;22185;48.738;9.324;2022-08-01T08:03:29;23.60;99.90
36132;DHT22;22185;48.738;9.324;2022-08-01T08:05:31;23.50;99.90
36132;DHT22;22185;48.738;9.324;2022-08-01T08:07:58;23.40;99.90
36132;DHT22;22185;48.738;9.324;2022-08-01T08:10:00;23.70;99.90
36132;DHT22;22185;48.738;9.324;2022-08-01T08:12:02;23.80;99.90
36132;DHT22;22185;48.738;9.324;2022-08-01T08:14:05;23.80;99.90
36132;DHT22;22185;48.738;9.324;2022-08-01T08:16:08;23.60;99.90
36132;DHT22;22185;48.738;9.324;2022-08-01T08:18:10;23.50;99.90
36132;DHT22;22185;48.738;9.324;2022-08-01T08:20:15;23.40;99.90
36132;DHT22;22185;48.738;9.324;2022-08-01T08:22:17;23.30;99.90
36132;DHT22;22185;48.738;9.324;2022-08-01T08:24:25;23.30;99.90
36132;DHT22;22185;48.738;9.324;2022-08-01T08:26:35;23.30;99.90
36132;DHT22;22185;48.738;9.324;2022-08-01T08:28:41;23.60;99.90
36132;DHT22;22185;48.738;9.324;2022-08-01T08:37:35;24.00;99.90
36132;DHT22;22185;48.738;9.324;2022-08-01T08:39:57;24.00;99.90
36132;DHT22;22185;48.738;9.324;2022-08-01T08:41:59;24.00;99.90
36132;DHT22;22185;48.738;9.324;2022-08-01T08:44:03;24.00;99.90
36132;DHT22;22185;48.738;9.324;2022-08-01T08:46:07;24.00;99.90
36132;DHT22;22185;48.738;9.324;2022-08-01T08:48:13;24.00;99.90
36132;DHT22;22185;48.738;9.324;2022-08-01T08:50:18;24.30;99.90
36132;DHT22;22185;48.738;9.324;2022-08-01T08:52:21;24.40;99.90
36132;DHT22;22185;48.738;9.324;2022-08-01T08:54:24;24.30;99.90
36132;DHT22;22185;48.738;9.324;2022-08-01T08:56:34;24.50;99.90
36132;DHT22;22185;48.738;9.324;2022-08-01T08:58:36;24.50;99.90
36132;DHT22;22185;48.738;9.324;2022-08-01T09:00:40;24.60;99.90
36132;DHT22;22185;48.738;9.324;2022-08-01T09:02:48;24.60;99.90
36132;DHT22;22185;48.738;9.324;2022-08-01T09:04:57;24.70;99.90
36132;DHT22;22185;48.738;9.324;2022-08-01T09:06:59;24.80;99.90
36132;DHT22;22185;48.738;9.324;2022-08-01T09:09:02;25.00;99.90
36132;DHT22;22185;48.738;9.324;2022-08-01T09:11:04;25.20;99.90
36132;DHT22;22185;48.738;9.324;2022-08-01T09:13:10;25.30;99.90
36132;DHT22;22185;48.738;9.324;2022-08-01T09:15:12;25.30;99.90
36132;DHT22;22185;48.738;9.324;2022-08-01T09:17:14;25.30;99.90
36132;DHT22;22185;48.738;9.324;2022-08-01T09:19:19;25.30;99.90
36132;DHT22;22185;48.738;9.324;2022-08-01T09:21:58;25.30;99.90
36132;DHT22;22185;48.738;9.324;2022-08-01T09:24:00;25.40;99.90
36132;DHT22;22185;48.738;9.324;2022-08-01T09:26:14;25.60;99.90
36132;DHT22;22185;48.738;9.324;2022-08-01T09:28:27;25.70;99.90
36132;DHT22;22185;48.738;9.324;2022-08-01T09:30:37;25.70;99.90
36132;DHT22;22185;48.738;9.324;2022-08-01T09:33:01;25.90;99.90
36132;DHT22;22185;48.738;9.324;2022-08-01T09:37:32;26.00;99.90
36132;DHT22;22185;48.738;9.324;2022-08-01T09:39:38;26.10;99.90
36132;DHT22;22185;48.738;9.324;2022-08-01T09:41:44;26.30;99.90
36132;DHT22;22185;48.738;9.324;2022-08-01T09:43:49;26.30;99.90
36132;DHT22;22185;48.738;9.324;2022-08-01T09:45:51;26.20;99.90
36132;DHT22;22185;48.738;9.324;2022-08-01T09:47:55;26.30;99.90
36132;DHT22;22185;48.738;9.324;2022-08-01T09:49:57;26.20;99.90
36132;DHT22;22185;48.738;9.324;2022-08-01T09:54:28;26.00;99.90
36132;DHT22;22185;48.738;9.324;2022-08-01T09:56:41;25.80;99.90
36132;DHT22;22185;48.738;9.324;2022-08-01T09:58:55;25.90;99.90
36132;DHT22;22185;48.738;9.324;2022-08-01T10:01:01;26.00;99.90
36132;DHT22;22185;48.738;9.324;2022-08-01T10:03:23;26.10;99.90
36132;DHT22;22185;48.738;9.324;2022-08-01T10:05:35;26.40;99.90
36132;DHT22;22185;48.738;9.324;2022-08-01T10:08:01;26.30;99.90
36132;DHT22;22185;48.738;9.324;2022-08-01T10:10:13;26.30;99.90
36132;DHT22;22185;48.738;9.324;2022-08-01T10:12:21;26.50;99.90
36132;DHT22;22185;48.738;9.324;2022-08-01T10:14:27;26.30;99.90
36132;DHT22;22185;48.738;9.324;2022-08-01T10:16:30;26.20;99.90
36132;DHT22;22185;48.738;9.324;2022-08-01T10:18:34;26.30;99.90
36132;DHT22;22185;48.738;9.324;2022-08-01T10:20:38;26.50;99.90
36132;DHT22;22185;48.738;9.324;2022-08-01T10:22:42;26.50;99.90
36132;DHT22;22185;48.738;9.324;2022-08-01T10:24:46;26.60;99.90
36132;DHT22;22185;48.738;9.324;2022-08-01T10:26:51;26.50;99.90
36132;DHT22;22185;48.738;9.324;2022-08-01T10:28:54;26.40;99.90
36132;DHT22;22185;48.738;9.324;2022-08-01T10:30:57;26.50;99.90
36132;DHT22;22185;48.738;9.324;2022-08-01T10:33:00;26.30;99.90
36132;DHT22;22185;48.738;9.324;2022-08-01T10:35:07;26.60;99.90
36132;DHT22;22185;48.738;9.324;2022-08-01T10:37:15;26.80;99.90
36132;DHT22;22185;48.738;9.324;2022-08-01T10:39:22;27.50;99.90
36132;DHT22;22185;48.738;9.324;2022-08-01T10:41:27;28.20;99.90
36132;DHT22;22185;48.738;9.324;2022-08-01T10:43:32;28.30;99.90
36132;DHT22;22185;48.738;9.324;2022-08-01T10:45:36;28.10;99.90
36132;DHT22;22185;48.738;9.324;2022-08-01T10:47:53;28.10;99.90
36132;DHT22;22185;48.738;9.324;2022-08-01T10:50:11;28.50;99.90
36132;DHT22;22185;48.738;9.324;2022-08-01T10:52:22;28.60;99.90
36132;DHT22;22185;48.738;9.324;2022-08-01T10:54:25;29.20;99.90
36132;DHT22;22185;48.738;9.324;2022-08-01T10:56:45;29.40;99.90
36132;DHT22;22185;48.738;9.324;2022-08-01T10:58:54;29.50;99.90
36132;DHT22;22185;48.738;9.324;2022-08-01T11:01:18;29.00;99.90
36132;DHT22;22185;48.738;9.324;2022-08-01T11:03:32;29.80;99.90
36132;DHT22;22185;48.738;9.324;2022-08-01T11:05:56;29.30;99.90
36132;DHT22;22185;48.738;9.324;2022-08-01T11:08:01;28.50;99.90
36132;DHT22;22185;48.738;9.324;2022-08-01T11:10:10;28.20;99.90
36132;DHT22;22185;48.738;9.324;2022-08-01T11:12:17;27.70;99.90
36132;DHT22;22185;48.738;9.324;2022-08-01T11:14:24;27.50;99.90
36132;DHT22;22185;48.738;9.324;2022-08-01T11:16:37;27.40;99.90
36132;DHT22;22185;48.738;9.324;2022-08-01T11:18:50;27.40;99.90
36132;DHT22;22185;48.738;9.324;2022-08-01T11:20:56;27.30;99.90
36132;DHT22;22185;48.738;9.324;2022-08-01T11:23:21;27.30;99.90
36132;DHT22;22185;48.738;9.324;2022-08-01T11:25:24;27.30;99.90
36132;DHT22;22185;48.738;9.324;2022-08-01T11:27:48;27.20;99.90
36132;DHT22;22185;48.738;9.324;2022-08-01T11:35:08;27.70;99.90
36132;DHT22;22185;48.738;9.324;2022-08-01T11:37:28;27.90;99.90
36132;DHT22;22185;48.738;9.324;2022-08-01T11:39:31;28.70;99.90
36132;DHT22;22185;48.738;9.324;2022-08-01T11:41:40;30.20;99.90
36132;DHT22;22185;48.738;9.324;2022-08-01T11:46:07;30.20;99.90
36132;DHT22;22185;48.738;9.324;2022-08-01T11:48:18;29.60;99.90
36132;DHT22;22185;48.738;9.324;2022-08-01T11:50:34;28.60;99.90
36132;DHT22;22185;48.738;9.324;2022-08-01T11:52:39;28.10;99.90
36132;DHT22;22185;48.738;9.324;2022-08-01T11:54:50;27.50;99.90
36132;DHT22;22185;48.738;9.324;2022-08-01T11:57:00;27.30;99.90
36132;DHT22;22185;48.738;9.324;2022-08-01T11:59:02;27.20;99.90
36132;DHT22;22185;48.738;9.324;2022-08-01T12:01:04;27.00;99.90
36132;DHT22;22185;48.738;9.324;2022-08-01T12:03:08;27.00;99.90
36132;DHT22;22185;48.738;9.324;2022-08-01T12:05:35;26.90;99.90
36132;DHT22;22185;48.738;9.324;2022-08-01T12:07:44;26.90;99.90
36132;DHT22;22185;48.738;9.324;2022-08-01T12:12:10;26.90;99.90
36132;DHT22;22185;48.738;9.324;2022-08-01T12:14:18;26.90;99.90
36132;DHT22;22185;48.738;9.324;2022-08-01T12:16:24;26.90;99.90
36132;DHT22;22185;48.738;9.324;2022-08-01T12:18:41;27.00;99.90
36132;DHT22;22185;48.738;9.324;2022-08-01T12:20:45;27.10;99.90
36132;DHT22;22185;48.738;9.324;2022-08-01T12:23:03;27.40;99.90
36132;DHT22;22185;48.738;9.324;2022-08-01T12:25:12;30.30;99.90
36132;DHT22;22185;48.738;9.324;2022-08-01T12:27:29;33.00;99.90
36132;DHT22;22185;48.738;9.324;2022-08-01T12:29:34;34.10;99.90
36132;DHT22;22185;48.738;9.324;2022-08-01T12:35:40;30.30;99.90
36132;DHT22;22185;48.738;9.324;2022-08-01T12:38:51;29.60;99.90
36132;DHT22;22185;48.738;9.324;2022-08-01T12:41:59;32.30;99.90
36132;DHT22;22185;48.738;9.324;2022-08-01T12:54:25;30.00;99.90
36132;DHT22;22185;48.738;9.324;2022-08-01T13:01:36;28.40;99.90
36132;DHT22;22185;48.738;9.324;2022-08-01T13:04:23;28.20;99.90
36132;DHT22;22185;48.738;9.324;2022-08-01T13:07:05;28.20;99.90
36132;DHT22;22185;48.738;9.324;2022-08-01T13:12:16;28.70;99.90
36132;DHT22;22185;48.738;9.324;2022-08-01T13:15:34;31.70;99.90
36132;DHT22;22185;48.738;9.324;2022-08-01T13:18:29;32.50;99.90
36132;DHT22;22185;48.738;9.324;2022-08-01T13:26:22;35.00;99.90
36132;DHT22;22185;48.738;9.324;2022-08-01T13:29:57;36.50;96.40
36132;DHT22;22185;48.738;9.324;2022-08-01T13:34:05;33.90;95.80
36132;DHT22;22185;48.738;9.324;2022-08-01T13:37:23;34.20;94.90
36132;DHT22;22185;48.738;9.324;2022-08-01T13:40:02;32.40;96.80
36132;DHT22;22185;48.738;9.324;2022-08-01T13:42:08;30.70;99.90
36132;DHT22;22185;48.738;9.324;2022-08-01T13:44:13;30.80;99.90
36132;DHT22;22185;48.738;9.324;2022-08-01T13:46:16;30.60;99.90
36132;DHT22;22185;48.738;9.324;2022-08-01T13:48:36;29.40;99.90
36132;DHT22;22185;48.738;9.324;2022-08-01T13:50:42;29.30;99.90
36132;DHT22;22185;48.738;9.324;2022-08-01T13:53:19;29.70;99.90
36132;DHT22;22185;48.738;9.324;2022-08-01T13:56:10;30.40;99.90
36132;DHT22;22185;48.738;9.324;2022-08-01T13:58:17;30.30;99.90
36132;DHT22;22185;48.738;9.324;2022-08-01T14:00:49;29.70;99.90
36132;DHT22;22185;48.738;9.324;2022-08-01T14:03:23;30.20;99.90
36132;DHT22;22185;48.738;9.324;2022-08-01T14:05:34;30.40;99.90
36132;DHT22;22185;48.738;9.324;2022-08-01T14:07:40;30.40;99.90
36132;DHT22;22185;48.738;9.324;2022-08-01T14:09:42;30.40;99.90
36132;DHT22;22185;48.738;9.324;2022-08-01T14:11:58;30.30;99.90
36132;DHT22;22185;48.738;9.324;2022-08-01T14:14:02;30.40;99.90
36132;DHT22;22185;48.738;9.324;2022-08-01T14:16:05;30.10;99.90
36132;DHT22;22185;48.738;9.324;2022-08-01T14:18:08;30.10;99.90
36132;DHT22;22185;48.738;9.324;2022-08-01T14:20:11;29.70;99.90
36132;DHT22;22185;48.738;9.324;2022-08-01T14:22:16;29.60;99.90
36132;DHT22;22185;48.738;9.324;2022-08-01T14:24:18;29.40;99.90
36132;DHT22;22185;48.738;9.324;2022-08-01T14:26:19;29.30;99.90
36132;DHT22;22185;48.738;9.324;2022-08-01T14:28:21;29.30;99.90
36132;DHT22;22185;48.738;9.324;2022-08-01T14:30:23;29.70;99.90